Strona główna
METAR-TAF:

METAR-TAF

Lotnisko :

Shimojishima, Japonia

Szerokość geograficzna: 24-50N, Długość geograficzna: 125-09E, wysokość: 16 m

Aktualna obserwacja pogody

Raport powstał 8 godziny i 7 minut temu, godzina 10:00 UTC
Wiatr 7 kt od południowo-południowy wschód
Temperatura 29°C
Wilgotność 84%
Ciśnienie 1005 hPa
Widzialność 10 km lub więcej
Mało chmury na wysokości 2000 ft

METAR: RORS 151000Z 16007KT 9999 FEW020 29/26 Q1005

czas: 03:07 (18:07 UTC)


TAF: brakujący

Obserwacja i prognoza pogody dla ponad 4000 lotnisk (raport METAR i TAF).

Dostępne stacje oznaczono żółtymi i czerwonymi punktami na mapie.

Najedź kursorem aby zobaczyć nazwę stacji.

Kliknij aby zobaczyć obserwacje i prognozy pogody.

Aby zmienić mapę: kliknij na zielony przycisk z czarnym krzyżykiem, aby powiększyć; na zielony przycisk z myślnikiem, aby pomniejszyć; na zielone strzałki, aby przejść do map sąsiednich.


METAR-TAF: